createdAt,value
2019-03-28T00:02:04.927Z,28.97
2019-03-28T00:04:11.632Z,19.80
2019-03-28T00:06:23.338Z,13.17
2019-03-28T00:08:28.224Z,10.70
2019-03-28T00:10:32.990Z,351.10
2019-03-28T00:12:37.756Z,21.27
2019-03-28T00:14:43.143Z,118.97
2019-03-28T00:16:48.296Z,476.27
2019-03-28T00:18:53.307Z,179.27
2019-03-28T00:20:58.373Z,207.50
2019-03-28T00:23:28.440Z,175.70
2019-03-28T00:25:33.393Z,59.03
2019-03-28T00:27:38.128Z,249.23
2019-03-28T00:29:42.863Z,74.47
2019-03-28T00:31:48.095Z,91.67
2019-03-28T00:33:53.329Z,50.47
2019-03-28T00:35:58.448Z,33.60
2019-03-28T00:38:04.848Z,24.60
2019-03-28T00:40:13.235Z,477.23
2019-03-28T00:42:20.680Z,574.67
2019-03-28T00:44:27.696Z,319.07
2019-03-28T00:46:32.621Z,181.23
2019-03-28T00:48:37.773Z,50.47
2019-03-28T00:50:42.939Z,58.50
2019-03-28T00:52:48.071Z,28.20
2019-03-28T00:54:52.866Z,24.20
2019-03-28T00:56:57.770Z,23.40
2019-03-28T00:59:02.493Z,15.23
2019-03-28T01:01:08.857Z,77.40
2019-03-28T01:03:16.139Z,127.67
2019-03-28T01:05:24.099Z,124.00
2019-03-28T01:07:29.568Z,34.27
2019-03-28T01:09:34.711Z,14.90
2019-03-28T01:11:39.854Z,12.70
2019-03-28T01:13:45.453Z,10.90
2019-03-28T01:15:54.665Z,9.47
2019-03-28T01:18:00.697Z,9.20
2019-03-28T01:20:12.073Z,9.40
2019-03-28T01:22:18.825Z,9.23
2019-03-28T01:24:29.681Z,7.23
2019-03-28T01:26:36.452Z,8.27
2019-03-28T01:28:41.551Z,8.10
2019-03-28T01:30:46.864Z,7.70
2019-03-28T01:32:51.943Z,8.10
2019-03-28T01:34:57.031Z,7.10
2019-03-28T01:37:02.028Z,8.10
2019-03-28T01:39:11.162Z,7.70
2019-03-28T01:41:24.060Z,7.30
2019-03-28T01:43:28.854Z,7.47
2019-03-28T01:45:33.603Z,7.80
2019-03-28T01:47:38.466Z,6.70
2019-03-28T01:49:43.248Z,6.90
2019-03-28T01:51:48.024Z,7.30
2019-03-28T01:53:52.976Z,6.70
2019-03-28T01:55:57.862Z,7.50
2019-03-28T01:58:02.716Z,6.80
2019-03-28T02:00:08.398Z,6.93
2019-03-28T02:02:16.036Z,6.40
2019-03-28T02:04:21.920Z,7.20
2019-03-28T02:06:29.783Z,6.97
2019-03-28T02:08:35.094Z,6.33
2019-03-28T02:10:40.223Z,6.63
2019-03-28T02:12:45.056Z,6.80
2019-03-28T02:14:50.286Z,6.77
2019-03-28T02:16:55.442Z,7.53
2019-03-28T02:19:00.560Z,6.30
2019-03-28T02:21:09.498Z,6.20
2019-03-28T02:23:17.883Z,6.63
2019-03-28T02:25:29.070Z,7.80
2019-03-28T02:27:33.935Z,7.17
2019-03-28T02:29:38.639Z,6.40
2019-03-28T02:31:43.556Z,6.50
2019-03-28T02:33:48.519Z,6.67
2019-03-28T02:35:53.304Z,6.73
2019-03-28T02:37:59.159Z,6.50
2019-03-28T02:40:04.876Z,6.33
2019-03-28T02:42:14.865Z,6.40
2019-03-28T02:44:25.191Z,7.37
2019-03-28T02:46:30.966Z,7.00
2019-03-28T02:48:35.668Z,6.07
2019-03-28T02:50:40.557Z,6.43
2019-03-28T02:52:45.305Z,6.07
2019-03-28T02:54:49.976Z,6.20
2019-03-28T02:56:54.831Z,7.20
2019-03-28T02:58:59.707Z,5.93
2019-03-28T03:01:04.793Z,7.37
2019-03-28T03:03:13.306Z,7.47
2019-03-28T03:05:23.745Z,6.30
2019-03-28T03:07:28.459Z,6.43
2019-03-28T03:09:33.146Z,6.70
2019-03-28T03:11:37.812Z,5.70
2019-03-28T03:13:43.804Z,6.23
2019-03-28T03:15:48.795Z,5.57
2019-03-28T03:17:54.180Z,6.60
2019-03-28T03:20:00.975Z,6.97
2019-03-28T03:22:07.799Z,6.40
2019-03-28T03:24:15.051Z,6.37
2019-03-28T03:26:27.570Z,6.50
2019-03-28T03:28:32.400Z,6.50
2019-03-28T03:30:37.205Z,6.57
2019-03-28T03:32:41.886Z,7.00
2019-03-28T03:34:46.684Z,6.90
2019-03-28T03:36:51.435Z,6.40
2019-03-28T03:38:57.076Z,6.03
2019-03-28T03:41:01.811Z,6.53
2019-03-28T03:43:09.195Z,6.30
2019-03-28T03:45:14.206Z,6.30
2019-03-28T03:47:23.448Z,6.13
2019-03-28T03:49:28.657Z,6.40
2019-03-28T03:51:33.647Z,6.53
2019-03-28T03:53:38.328Z,5.70
2019-03-28T03:55:43.366Z,6.20
2019-03-28T03:57:48.179Z,6.27
2019-03-28T03:59:52.949Z,6.03
2019-03-28T04:01:57.943Z,5.90
2019-03-28T04:04:02.763Z,5.97
2019-03-28T04:06:10.534Z,5.80
2019-03-28T04:08:18.272Z,6.83
2019-03-28T04:10:24.034Z,6.27
2019-03-28T04:12:28.954Z,6.57
2019-03-28T04:14:33.804Z,5.97
2019-03-28T04:16:38.459Z,6.40
2019-03-28T04:18:43.453Z,6.37
2019-03-28T04:20:48.157Z,6.90
2019-03-28T04:22:52.852Z,6.67
2019-03-28T04:24:57.875Z,5.90
2019-03-28T04:27:02.532Z,7.27
2019-03-28T04:29:11.237Z,6.50
2019-03-28T04:31:21.361Z,6.10
2019-03-28T04:33:26.352Z,7.40
2019-03-28T04:35:31.817Z,6.17
2019-03-28T04:37:36.992Z,6.60
2019-03-28T04:39:42.425Z,6.23
2019-03-28T04:41:47.485Z,5.80
2019-03-28T04:43:55.667Z,6.57
2019-03-28T04:45:59.132Z,6.10
2019-03-28T04:48:03.872Z,6.43
2019-03-28T04:50:13.501Z,5.90
2019-03-28T04:52:22.841Z,6.20
2019-03-28T04:54:28.264Z,6.10
2019-03-28T04:56:32.955Z,7.67
2019-03-28T04:58:44.294Z,6.83
2019-03-28T05:00:44.176Z,6.50
2019-03-28T05:02:48.957Z,6.33
2019-03-28T05:04:54.012Z,6.17
2019-03-28T05:06:58.804Z,5.50
2019-03-28T05:09:04.275Z,6.47
2019-03-28T05:11:28.397Z,5.93
2019-03-28T05:13:33.489Z,6.53
2019-03-28T05:15:39.187Z,6.67
2019-03-28T05:17:44.424Z,36.60
2019-03-28T05:19:49.698Z,412.13
2019-03-28T05:21:54.809Z,196.43
2019-03-28T05:23:59.579Z,300.03
2019-03-28T05:26:04.682Z,661.93
2019-03-28T05:28:12.458Z,191.83
2019-03-28T05:30:23.302Z,62.87
2019-03-28T05:32:28.013Z,19.07
2019-03-28T05:34:32.988Z,11.00
2019-03-28T05:36:37.992Z,9.70
2019-03-28T05:38:42.665Z,9.00
2019-03-28T05:40:47.378Z,8.40
2019-03-28T05:42:54.005Z,7.63
2019-03-28T05:44:58.806Z,7.10
2019-03-28T05:47:03.675Z,7.27
2019-03-28T05:49:11.516Z,7.20
2019-03-28T05:51:18.455Z,7.10
2019-03-28T05:53:28.453Z,6.93
2019-03-28T05:55:33.256Z,6.93
2019-03-28T05:57:38.261Z,6.50
2019-03-28T05:59:43.321Z,6.57
2019-03-28T06:01:48.761Z,6.10
2019-03-28T06:03:53.370Z,6.33
2019-03-28T06:05:58.479Z,7.20
2019-03-28T06:08:03.782Z,5.97
2019-03-28T06:10:16.122Z,6.00
2019-03-28T06:12:23.944Z,6.97
2019-03-28T06:14:28.700Z,6.70
2019-03-28T06:16:38.637Z,6.83
2019-03-28T06:18:43.447Z,6.20
2019-03-28T06:20:48.638Z,5.93
2019-03-28T06:22:53.494Z,6.50
2019-03-28T06:24:58.490Z,6.30
2019-03-28T06:27:03.466Z,7.07
2019-03-28T06:29:23.248Z,6.47
2019-03-28T06:31:30.192Z,5.80
2019-03-28T06:33:34.876Z,6.40
2019-03-28T06:35:39.649Z,6.07
2019-03-28T06:37:44.668Z,5.80
2019-03-28T06:39:49.526Z,6.17
2019-03-28T06:41:54.713Z,5.57
2019-03-28T06:43:59.519Z,6.33
2019-03-28T06:46:04.704Z,6.03
2019-03-28T06:48:11.819Z,6.07
2019-03-28T06:50:20.911Z,5.93
2019-03-28T06:52:29.325Z,6.23
2019-03-28T06:54:33.652Z,6.30
2019-03-28T06:56:38.433Z,6.37
2019-03-28T06:58:43.440Z,6.30
2019-03-28T07:00:48.636Z,6.50
2019-03-28T07:02:56.672Z,6.53
2019-03-28T07:05:01.846Z,6.53
2019-03-28T07:07:09.039Z,6.10
2019-03-28T07:09:15.821Z,6.00
2019-03-28T07:11:21.319Z,6.30
2019-03-28T07:13:26.713Z,6.50
2019-03-28T07:15:31.715Z,6.20
2019-03-28T07:17:36.982Z,14.20
2019-03-28T07:19:42.197Z,147.07
2019-03-28T07:21:47.201Z,23.83
2019-03-28T07:23:52.115Z,8.63
2019-03-28T07:25:57.042Z,7.03
2019-03-28T07:28:01.848Z,7.87
2019-03-28T07:30:07.587Z,7.13
2019-03-28T07:32:14.972Z,6.10
2019-03-28T07:34:25.599Z,6.80
2019-03-28T07:36:30.243Z,6.57
2019-03-28T07:38:34.962Z,6.50
2019-03-28T07:40:39.980Z,8.03
2019-03-28T07:42:44.788Z,8.43
2019-03-28T07:44:49.808Z,7.77
2019-03-28T07:46:54.508Z,7.50
2019-03-28T07:48:59.174Z,7.00
2019-03-28T07:51:05.352Z,6.93
2019-03-28T07:53:13.993Z,821.07
2019-03-28T07:55:24.455Z,920.83
2019-03-28T07:57:29.211Z,356.70
2019-03-28T07:59:34.062Z,107.60
2019-03-28T08:01:38.741Z,217.83
2019-03-28T08:03:43.796Z,919.83
2019-03-28T08:05:48.571Z,988.93
2019-03-28T08:07:53.429Z,899.83
2019-03-28T08:09:58.163Z,624.97
2019-03-28T08:12:02.973Z,695.13
2019-03-28T08:14:10.250Z,999.90
2019-03-28T08:16:17.959Z,716.20
2019-03-28T08:18:25.130Z,913.20
2019-03-28T08:20:30.012Z,959.03
2019-03-28T08:22:34.699Z,999.90
2019-03-28T08:24:39.646Z,778.97
2019-03-28T08:26:44.975Z,535.07
2019-03-28T08:28:49.693Z,460.80
2019-03-28T08:30:54.681Z,999.90
2019-03-28T08:33:00.469Z,713.67
2019-03-28T08:35:06.735Z,814.80
2019-03-28T08:37:13.720Z,789.70
2019-03-28T08:39:21.490Z,947.17
2019-03-28T08:41:27.096Z,871.83
2019-03-28T08:43:31.927Z,640.40
2019-03-28T08:45:37.177Z,395.37
2019-03-28T08:47:41.856Z,342.80
2019-03-28T08:49:46.618Z,271.03
2019-03-28T08:51:51.570Z,148.33
2019-03-28T08:53:56.287Z,83.20
2019-03-28T08:56:01.567Z,72.03
2019-03-28T08:58:08.933Z,61.70
2019-03-28T09:00:32.136Z,445.73
2019-03-28T09:02:28.769Z,54.70
2019-03-28T09:04:33.743Z,219.93
2019-03-28T09:06:38.825Z,46.23
2019-03-28T09:08:43.556Z,568.10
2019-03-28T09:10:48.277Z,800.50
2019-03-28T09:12:53.379Z,75.73
2019-03-28T09:14:58.583Z,43.40
2019-03-28T09:17:04.364Z,726.90
2019-03-28T09:19:12.134Z,505.70
2019-03-28T09:21:21.109Z,220.00
2019-03-28T09:23:26.286Z,33.03
2019-03-28T09:25:31.538Z,656.50
2019-03-28T09:27:36.834Z,66.47
2019-03-28T09:29:42.343Z,67.53
2019-03-28T09:31:49.206Z,37.60
2019-03-28T09:33:54.105Z,25.30
2019-03-28T09:36:01.132Z,21.73
2019-03-28T09:38:08.177Z,17.50
2019-03-28T09:40:15.172Z,14.50
2019-03-28T09:42:21.689Z,363.23
2019-03-28T09:44:26.775Z,46.47
2019-03-28T09:46:31.543Z,16.30
2019-03-28T09:48:36.632Z,19.37
2019-03-28T09:50:41.467Z,17.00
2019-03-28T09:52:46.483Z,14.17
2019-03-28T09:54:52.692Z,23.20
2019-03-28T09:56:58.012Z,282.93
2019-03-28T09:59:03.684Z,45.33
2019-03-28T10:01:12.240Z,22.17
2019-03-28T10:03:25.579Z,117.43
2019-03-28T10:05:30.498Z,52.93
2019-03-28T10:07:38.448Z,671.03
2019-03-28T10:09:43.781Z,999.90
2019-03-28T10:11:48.900Z,92.83
2019-03-28T10:13:55.137Z,47.47
2019-03-28T10:16:04.774Z,570.27
2019-03-28T10:18:14.831Z,553.67
2019-03-28T10:20:23.708Z,894.03
2019-03-28T10:22:28.779Z,930.80
2019-03-28T10:24:33.781Z,997.30
2019-03-28T10:26:39.447Z,190.90
2019-03-28T10:28:44.440Z,201.53
2019-03-28T10:30:49.424Z,999.90
2019-03-28T10:32:54.407Z,309.13
2019-03-28T10:34:59.325Z,950.03
2019-03-28T10:37:05.395Z,354.57
2019-03-28T10:39:20.028Z,181.60
2019-03-28T10:41:25.700Z,999.90
2019-03-28T10:43:29.719Z,999.90
2019-03-28T10:45:34.734Z,549.83
2019-03-28T10:47:40.051Z,999.90
2019-03-28T10:49:44.909Z,414.67
2019-03-28T10:51:49.690Z,999.90
2019-03-28T10:53:54.935Z,485.70
2019-03-28T10:55:59.837Z,465.53
2019-03-28T10:58:17.609Z,926.97
2019-03-28T11:00:23.453Z,434.27
2019-03-28T11:02:22.871Z,872.67
2019-03-28T11:04:27.649Z,227.83
2019-03-28T11:06:32.811Z,332.27
2019-03-28T11:08:37.738Z,144.90
2019-03-28T11:10:42.672Z,141.63
2019-03-28T11:12:47.392Z,143.00
2019-03-28T11:14:52.891Z,150.20
2019-03-28T11:16:58.070Z,74.90
2019-03-28T11:19:03.249Z,621.70
2019-03-28T11:21:10.783Z,403.23
2019-03-28T11:23:29.317Z,96.13
2019-03-28T11:25:34.323Z,42.33
2019-03-28T11:27:39.006Z,39.23
2019-03-28T11:29:43.723Z,29.60
2019-03-28T11:31:52.276Z,344.70
2019-03-28T11:33:56.269Z,26.10
2019-03-28T11:36:01.410Z,283.50
2019-03-28T11:38:09.736Z,122.83
2019-03-28T11:40:24.471Z,40.60
2019-03-28T11:42:24.825Z,663.90
2019-03-28T11:44:29.826Z,330.33
2019-03-28T11:46:35.238Z,33.43
2019-03-28T11:48:39.989Z,36.53
2019-03-28T11:50:45.159Z,999.90
2019-03-28T11:52:50.361Z,160.77
2019-03-28T11:54:58.306Z,118.83
2019-03-28T11:57:03.281Z,85.70
2019-03-28T11:59:11.365Z,23.60
2019-03-28T12:01:25.533Z,18.57
2019-03-28T12:03:30.440Z,15.70
2019-03-28T12:05:35.188Z,13.13
2019-03-28T12:07:39.993Z,13.03
2019-03-28T12:09:44.799Z,12.70
2019-03-28T12:11:52.675Z,12.10
2019-03-28T12:13:59.550Z,223.47
2019-03-28T12:16:03.652Z,24.03
2019-03-28T12:18:11.340Z,910.00
2019-03-28T12:20:22.862Z,223.10
2019-03-28T12:22:29.495Z,583.40
2019-03-28T12:24:34.419Z,156.80
2019-03-28T12:26:39.620Z,86.83
2019-03-28T12:28:44.570Z,609.00
2019-03-28T12:30:49.876Z,860.97
2019-03-28T12:32:56.677Z,613.80
2019-03-28T12:35:01.557Z,999.90
2019-03-28T12:37:08.738Z,302.57
2019-03-28T12:39:16.748Z,156.50
2019-03-28T12:41:27.691Z,80.37
2019-03-28T12:43:32.455Z,999.90
2019-03-28T12:45:37.137Z,393.67
2019-03-28T12:47:43.110Z,618.37
2019-03-28T12:49:48.270Z,156.57
2019-03-28T12:51:53.423Z,999.90
2019-03-28T12:53:58.316Z,293.53
2019-03-28T12:56:03.465Z,999.90
2019-03-28T12:58:13.261Z,757.77
2019-03-28T13:00:23.328Z,352.03
2019-03-28T13:02:31.949Z,370.47
2019-03-28T13:04:35.621Z,363.33
2019-03-28T13:06:41.006Z,281.67
2019-03-28T13:08:46.769Z,236.60
2019-03-28T13:10:51.580Z,128.30
2019-03-28T13:12:56.742Z,91.47
2019-03-28T13:15:02.848Z,60.27
2019-03-28T13:17:09.176Z,40.13
2019-03-28T13:19:16.035Z,27.97
2019-03-28T13:21:27.092Z,20.30
2019-03-28T13:23:31.823Z,16.70
2019-03-28T13:25:36.606Z,16.00
2019-03-28T13:27:41.399Z,13.33
2019-03-28T13:29:46.987Z,12.63
2019-03-28T13:31:52.824Z,11.20
2019-03-28T13:33:57.648Z,10.90
2019-03-28T13:36:02.814Z,10.93
2019-03-28T13:38:10.833Z,10.20
2019-03-28T13:40:17.732Z,10.30
2019-03-28T13:42:28.111Z,999.90
2019-03-28T13:44:34.147Z,385.20
2019-03-28T13:46:39.774Z,931.07
2019-03-28T13:48:46.607Z,814.30
2019-03-28T13:50:54.656Z,718.33
2019-03-28T13:53:01.450Z,155.93
2019-03-28T13:55:08.975Z,117.33
2019-03-28T13:57:27.062Z,999.90
2019-03-28T13:59:35.457Z,253.30
2019-03-28T14:01:41.313Z,130.17
2019-03-28T14:03:47.051Z,141.27
2019-03-28T14:05:56.782Z,161.30
2019-03-28T14:08:08.669Z,74.60
2019-03-28T14:10:22.381Z,987.67
2019-03-28T14:12:27.871Z,915.30
2019-03-28T14:14:34.602Z,119.67
2019-03-28T14:16:42.844Z,999.90
2019-03-28T14:18:50.268Z,109.73
2019-03-28T14:21:00.113Z,68.37
2019-03-28T14:23:06.740Z,40.77
2019-03-28T14:25:13.506Z,30.47
2019-03-28T14:27:29.737Z,21.93
2019-03-28T14:29:34.491Z,14.77
2019-03-28T14:31:39.648Z,12.33
2019-03-28T14:33:44.927Z,10.30
2019-03-28T14:35:50.544Z,10.40
2019-03-28T14:37:57.426Z,8.77
2019-03-28T14:40:03.142Z,8.70
2019-03-28T14:42:10.319Z,8.43
2019-03-28T14:44:17.359Z,9.27
2019-03-28T14:46:24.618Z,7.47
2019-03-28T14:48:29.808Z,7.37
2019-03-28T14:50:36.417Z,8.10
2019-03-28T14:52:41.944Z,6.20
2019-03-28T14:54:47.166Z,5.97
2019-03-28T14:56:52.647Z,17.90
2019-03-28T14:58:59.373Z,487.07
2019-03-28T15:01:04.856Z,32.43
2019-03-28T15:03:26.243Z,38.67
2019-03-28T15:05:33.503Z,24.13
2019-03-28T15:07:41.310Z,13.70
2019-03-28T15:09:46.204Z,9.47
2019-03-28T15:11:51.296Z,8.67
2019-03-28T15:13:56.247Z,6.70
2019-03-28T15:16:02.665Z,6.90
2019-03-28T15:18:09.591Z,6.70
2019-03-28T15:20:17.598Z,5.90
2019-03-28T15:22:26.220Z,5.47
2019-03-28T15:24:31.875Z,5.57
2019-03-28T15:26:37.202Z,4.90
2019-03-28T15:28:48.610Z,5.30
2019-03-28T15:30:55.748Z,5.70
2019-03-28T15:33:00.436Z,4.40
2019-03-28T15:35:09.322Z,5.30
2019-03-28T15:37:17.342Z,4.53
2019-03-28T15:39:31.725Z,4.60
2019-03-28T15:41:36.710Z,4.33
2019-03-28T15:43:41.676Z,4.90
2019-03-28T15:45:46.601Z,4.73
2019-03-28T15:47:52.235Z,4.60
2019-03-28T15:50:01.848Z,4.50
2019-03-28T15:52:08.645Z,4.37
2019-03-28T15:54:16.222Z,4.67
2019-03-28T15:56:24.989Z,5.20
2019-03-28T15:58:29.819Z,4.90
2019-03-28T16:00:34.532Z,4.67
2019-03-28T16:02:39.779Z,4.40
2019-03-28T16:04:44.690Z,4.37
2019-03-28T16:06:49.860Z,4.43
2019-03-28T16:08:54.719Z,4.30
2019-03-28T16:11:00.111Z,4.50
2019-03-28T16:13:06.752Z,5.17
2019-03-28T16:15:13.907Z,4.60
2019-03-28T16:17:25.092Z,4.33
2019-03-28T16:19:32.961Z,4.30
2019-03-28T16:21:38.344Z,4.47
2019-03-28T16:23:43.286Z,5.03
2019-03-28T16:25:49.875Z,5.23
2019-03-28T16:27:54.581Z,5.20
2019-03-28T16:29:59.993Z,3.93
2019-03-28T16:32:06.284Z,4.77
2019-03-28T16:34:13.324Z,4.03
2019-03-28T16:36:22.594Z,3.67
2019-03-28T16:38:32.642Z,3.93
2019-03-28T16:40:34.529Z,3.93
2019-03-28T16:42:39.295Z,4.27
2019-03-28T16:44:44.500Z,4.90
2019-03-28T16:46:49.579Z,4.83
2019-03-28T16:48:54.314Z,5.17
2019-03-28T16:50:59.749Z,4.47
2019-03-28T16:53:05.297Z,4.33
2019-03-28T16:55:25.840Z,5.50
2019-03-28T16:57:26.437Z,4.50
2019-03-28T16:59:31.225Z,5.43
2019-03-28T17:01:36.265Z,4.30
2019-03-28T17:03:41.874Z,4.90
2019-03-28T17:05:47.199Z,5.00
2019-03-28T17:07:53.017Z,4.90
2019-03-28T17:09:58.295Z,4.07
2019-03-28T17:12:03.359Z,4.60
2019-03-28T17:14:12.009Z,4.80
2019-03-28T17:16:18.728Z,4.90
2019-03-28T17:18:28.745Z,4.30
2019-03-28T17:20:33.873Z,5.20
2019-03-28T17:22:38.982Z,4.13
2019-03-28T17:24:43.771Z,4.67
2019-03-28T17:26:48.744Z,4.80
2019-03-28T17:28:54.059Z,4.77
2019-03-28T17:30:59.320Z,4.03
2019-03-28T17:33:05.851Z,5.00
2019-03-28T17:35:14.629Z,4.40
2019-03-28T17:37:24.080Z,4.03
2019-03-28T17:39:29.302Z,5.10
2019-03-28T17:41:34.654Z,4.10
2019-03-28T17:43:39.605Z,5.37
2019-03-28T17:45:44.475Z,4.90
2019-03-28T17:47:49.915Z,4.50
2019-03-28T17:49:55.176Z,4.30
2019-03-28T17:51:59.880Z,4.47
2019-03-28T17:54:04.836Z,4.60
2019-03-28T17:56:12.068Z,4.40
2019-03-28T17:58:23.955Z,4.47
2019-03-28T18:00:28.948Z,5.00
2019-03-28T18:02:33.737Z,4.90
2019-03-28T18:04:47.808Z,4.07
2019-03-28T18:06:48.319Z,4.37
2019-03-28T18:08:54.996Z,4.40
2019-03-28T18:11:00.587Z,3.80
2019-03-28T18:13:06.409Z,4.50
2019-03-28T18:15:11.623Z,3.87
2019-03-28T18:17:25.714Z,4.70
2019-03-28T18:19:30.673Z,4.93
2019-03-28T18:21:35.521Z,4.17
2019-03-28T18:23:40.688Z,3.80
2019-03-28T18:25:45.813Z,4.57
2019-03-28T18:27:50.531Z,4.10
2019-03-28T18:29:55.253Z,4.10
2019-03-28T18:31:59.975Z,3.77
2019-03-28T18:34:05.186Z,4.70
2019-03-28T18:36:12.924Z,3.80
2019-03-28T18:38:22.322Z,260.47
2019-03-28T18:40:30.307Z,452.60
2019-03-28T18:42:35.106Z,555.27
2019-03-28T18:44:39.905Z,797.20
2019-03-28T18:46:44.703Z,661.20
2019-03-28T18:48:52.234Z,876.30
2019-03-28T18:50:56.672Z,862.87
2019-03-28T18:53:01.340Z,372.07
2019-03-28T18:55:06.675Z,168.30
2019-03-28T18:57:15.076Z,110.17
2019-03-28T18:59:23.995Z,79.47
2019-03-28T19:01:29.097Z,42.77
2019-03-28T19:03:33.795Z,25.00
2019-03-28T19:05:38.662Z,14.63
2019-03-28T19:07:43.651Z,320.17
2019-03-28T19:09:48.620Z,41.37
2019-03-28T19:11:53.475Z,386.97
2019-03-28T19:13:58.507Z,31.53
2019-03-28T19:16:08.027Z,17.50
2019-03-28T19:18:14.759Z,10.97
2019-03-28T19:20:25.441Z,8.80
2019-03-28T19:22:30.138Z,7.07
2019-03-28T19:24:34.943Z,124.90
2019-03-28T19:26:39.852Z,555.67
2019-03-28T19:28:45.124Z,775.43
2019-03-28T19:30:51.388Z,302.20
2019-03-28T19:32:56.166Z,35.50
2019-03-28T19:35:02.999Z,423.00
2019-03-28T19:37:11.789Z,85.83
2019-03-28T19:39:33.137Z,760.97
2019-03-28T19:41:38.004Z,333.77
2019-03-28T19:43:44.487Z,700.43
2019-03-28T19:45:49.785Z,337.40
2019-03-28T19:47:54.876Z,715.70
2019-03-28T19:50:00.052Z,583.13
2019-03-28T19:52:06.130Z,99.47
2019-03-28T19:54:15.896Z,47.90
2019-03-28T19:56:22.784Z,999.90
2019-03-28T19:58:28.795Z,512.80
2019-03-28T20:00:34.159Z,999.90
2019-03-28T20:02:39.885Z,609.87
2019-03-28T20:04:46.782Z,224.13
2019-03-28T20:06:52.664Z,193.23
2019-03-28T20:09:01.033Z,105.43
2019-03-28T20:11:24.198Z,832.83
2019-03-28T20:13:31.024Z,626.30
2019-03-28T20:15:39.107Z,115.20
2019-03-28T20:17:44.076Z,79.13
2019-03-28T20:19:48.899Z,63.03
2019-03-28T20:21:53.670Z,31.23
2019-03-28T20:23:58.529Z,18.03
2019-03-28T20:26:03.728Z,14.13
2019-03-28T20:28:09.323Z,11.30
2019-03-28T20:30:15.064Z,150.57
2019-03-28T20:32:23.876Z,892.30
2019-03-28T20:34:29.857Z,116.73
2019-03-28T20:36:38.633Z,360.93
2019-03-28T20:38:41.382Z,160.87
2019-03-28T20:40:46.452Z,308.27
2019-03-28T20:42:51.235Z,329.73
2019-03-28T20:44:56.828Z,386.00
2019-03-28T20:47:05.125Z,101.50
2019-03-28T20:49:13.733Z,48.13
2019-03-28T20:51:26.456Z,35.87
2019-03-28T20:53:31.540Z,24.60
2019-03-28T20:55:36.905Z,16.70
2019-03-28T20:57:41.834Z,673.53
2019-03-28T20:59:47.005Z,155.20
2019-03-28T21:01:53.386Z,29.17
2019-03-28T21:03:58.416Z,26.80
2019-03-28T21:06:14.718Z,521.17
2019-03-28T21:08:13.026Z,168.80
2019-03-28T21:10:25.450Z,50.67
2019-03-28T21:12:30.315Z,35.50
2019-03-28T21:14:35.397Z,21.30
2019-03-28T21:16:40.316Z,17.33
2019-03-28T21:18:45.296Z,370.70
2019-03-28T21:20:50.203Z,247.70
2019-03-28T21:22:55.215Z,61.80
2019-03-28T21:25:00.370Z,44.37
2019-03-28T21:27:06.870Z,28.57
2019-03-28T21:29:14.627Z,18.40
2019-03-28T21:31:23.051Z,74.13
2019-03-28T21:33:28.573Z,303.23
2019-03-28T21:35:33.285Z,41.50
2019-03-28T21:37:38.180Z,16.83
2019-03-28T21:39:42.955Z,12.40
2019-03-28T21:41:47.802Z,392.40
2019-03-28T21:43:52.613Z,414.37
2019-03-28T21:45:57.937Z,110.20
2019-03-28T21:48:02.929Z,268.53
2019-03-28T21:50:11.479Z,239.27
2019-03-28T21:52:26.929Z,116.17
2019-03-28T21:54:31.646Z,855.07
2019-03-28T21:56:36.436Z,316.80
2019-03-28T21:58:41.216Z,488.50
2019-03-28T22:00:46.272Z,510.50
2019-03-28T22:02:52.903Z,103.67
2019-03-28T22:04:57.660Z,828.47
2019-03-28T22:07:02.667Z,249.30
2019-03-28T22:09:09.659Z,999.90
2019-03-28T22:11:16.419Z,300.27
2019-03-28T22:13:27.898Z,966.73
2019-03-28T22:15:33.435Z,300.83
2019-03-28T22:17:38.295Z,501.77
2019-03-28T22:19:43.256Z,999.90
2019-03-28T22:21:48.281Z,831.30
2019-03-28T22:23:53.738Z,886.07
2019-03-28T22:25:58.785Z,612.60
2019-03-28T22:28:03.681Z,300.40
2019-03-28T22:30:11.135Z,351.93
2019-03-28T22:32:23.613Z,429.00
2019-03-28T22:34:31.494Z,201.20
2019-03-28T22:36:36.921Z,678.27
2019-03-28T22:38:42.044Z,654.37
2019-03-28T22:40:47.114Z,470.53
2019-03-28T22:42:52.517Z,158.50
2019-03-28T22:44:57.941Z,240.67
2019-03-28T22:47:03.186Z,761.20
2019-03-28T22:49:10.577Z,567.47
2019-03-28T22:51:22.024Z,999.90
2019-03-28T22:53:27.218Z,609.93
2019-03-28T22:55:32.359Z,587.50
2019-03-28T22:57:37.066Z,536.17
2019-03-28T22:59:42.073Z,862.60
2019-03-28T23:01:47.120Z,737.13
2019-03-28T23:03:52.187Z,901.90
2019-03-28T23:05:57.533Z,971.37
2019-03-28T23:08:02.352Z,673.40
2019-03-28T23:10:11.152Z,570.97
2019-03-28T23:12:21.820Z,686.43
2019-03-28T23:14:29.265Z,621.37
2019-03-28T23:16:34.584Z,508.03
2019-03-28T23:18:39.966Z,386.53
2019-03-28T23:20:45.799Z,591.43
2019-03-28T23:22:50.780Z,463.23
2019-03-28T23:24:56.057Z,552.90
2019-03-28T23:27:01.703Z,338.83
2019-03-28T23:29:08.781Z,622.07
2019-03-28T23:31:18.832Z,524.57
2019-03-28T23:33:27.836Z,748.33
2019-03-28T23:35:32.677Z,464.40
2019-03-28T23:37:37.502Z,265.77
2019-03-28T23:39:42.183Z,215.23
2019-03-28T23:41:47.813Z,144.97
2019-03-28T23:43:52.834Z,96.30
2019-03-28T23:45:57.718Z,57.80
2019-03-28T23:48:02.838Z,41.27
2019-03-28T23:50:13.700Z,27.83
2019-03-28T23:52:20.354Z,21.07
2019-03-28T23:54:27.903Z,17.50
2019-03-28T23:56:34.043Z,26.10
2019-03-28T23:58:39.241Z,173.17
